地図

経路データ

SID SEASON NUMBER BASIN SUBBASIN NAME ISO_TIME NATURE LAT LON WMO_WIND WMO_PRES WMO_AGENCY TRACK_TYPE DIST2LAND LANDFALL IFLAG USA_AGENCY USA_ATCF_ID USA_LAT USA_LON USA_RECORD USA_STATUS USA_WIND USA_PRES USA_SSHS USA_R34_NE USA_R34_SE USA_R34_SW USA_R34_NW USA_R50_NE USA_R50_SE USA_R50_SW USA_R50_NW USA_R64_NE USA_R64_SE USA_R64_SW USA_R64_NW USA_POCI USA_ROCI USA_RMW USA_EYE TOKYO_LAT TOKYO_LON TOKYO_GRADE TOKYO_WIND TOKYO_PRES TOKYO_R50_DIR TOKYO_R50_LONG TOKYO_R50_SHORT TOKYO_R30_DIR TOKYO_R30_LONG TOKYO_R30_SHORT TOKYO_LAND CMA_LAT CMA_LON CMA_CAT CMA_WIND CMA_PRES HKO_LAT HKO_LON HKO_CAT HKO_WIND HKO_PRES NEWDELHI_LAT NEWDELHI_LON NEWDELHI_GRADE NEWDELHI_WIND NEWDELHI_PRES NEWDELHI_CI NEWDELHI_DP NEWDELHI_POCI REUNION_LAT REUNION_LON REUNION_TYPE REUNION_WIND REUNION_PRES REUNION_TNUM REUNION_CI REUNION_RMW REUNION_R34_NE REUNION_R34_SE REUNION_R34_SW REUNION_R34_NW REUNION_R50_NE REUNION_R50_SE REUNION_R50_SW REUNION_R50_NW REUNION_R64_NE REUNION_R64_SE REUNION_R64_SW REUNION_R64_NW BOM_LAT BOM_LON BOM_TYPE BOM_WIND BOM_PRES BOM_TNUM BOM_CI BOM_RMW BOM_R34_NE BOM_R34_SE BOM_R34_SW BOM_R34_NW BOM_R50_NE BOM_R50_SE BOM_R50_SW BOM_R50_NW BOM_R64_NE BOM_R64_SE BOM_R64_SW BOM_R64_NW BOM_ROCI BOM_POCI BOM_EYE BOM_POS_METHOD BOM_PRES_METHOD NADI_LAT NADI_LON NADI_CAT NADI_WIND NADI_PRES WELLINGTON_LAT WELLINGTON_LON WELLINGTON_WIND WELLINGTON_PRES DS824_LAT DS824_LON DS824_STAGE DS824_WIND DS824_PRES TD9636_LAT TD9636_LON TD9636_STAGE TD9636_WIND TD9636_PRES TD9635_LAT TD9635_LON TD9635_WIND TD9635_PRES TD9635_ROCI NEUMANN_LAT NEUMANN_LON NEUMANN_CLASS NEUMANN_WIND NEUMANN_PRES MLC_LAT MLC_LON MLC_CLASS MLC_WIND MLC_PRES USA_GUST BOM_GUST BOM_GUST_PER REUNION_GUST REUNION_GUST_PER USA_SEAHGT USA_SEARAD_NE USA_SEARAD_SE USA_SEARAD_SW USA_SEARAD_NW STORM_SPEED STORM_DIR
1975225N11253 1975 72 EP MM HILARY 1975-08-12 18:00:00 NR 11.4000 -107.000 main 859 858 __________O___ -1 11.4000 -107.000 1 30 10 288
1975225N11253 1975 72 EP MM HILARY 1975-08-12 21:00:00 NR 11.5508 -107.474 main 864 864 __________P___ -1 11.5508 -107.474 1 30 10 287
1975225N11253 1975 72 EP MM HILARY 1975-08-13 00:00:00 TS 11.7000 -108.000 30 hurdat_epa main 882 882 O________OO___ hurdat_epa EP081975 11.7000 -108.000 TD 30 -1 11.7000 -108.000 TC 30 11.7000 -108.000 1 30 12 284
1975225N11253 1975 72 EP MM HILARY 1975-08-13 03:00:00 TS 11.8493 -108.685 main 917 908 P________PP___ EP081975 11.8504 -108.722 TD 35 0 11.8504 -108.722 TC 35 11.8471 -108.610 1 32 14 283
1975225N11253 1975 72 EP MM HILARY 1975-08-13 06:00:00 TS 11.9985 -109.367 40 hurdat_epa main 944 944 O________OP___ hurdat_epa EP081975 12.0000 -109.400 TS 40 0 12.0000 -109.400 TC 40 11.9940 -109.267 1 35 13 283
1975225N11253 1975 72 EP MM HILARY 1975-08-13 09:00:00 TS 12.1486 -109.979 main 970 960 P________PP___ EP081975 12.1499 -109.995 TS 40 0 12.1499 -109.995 TC 40 12.1438 -109.915 1 37 12 285
1975225N11253 1975 72 EP MM HILARY 1975-08-13 12:00:00 TS 12.3000 -110.500 40 hurdat_epa main 983 983 O________OO___ hurdat_epa EP081975 12.3000 -110.500 TS 40 0 12.3000 -110.500 TC 40 12.3000 -110.500 2 40 10 287
1975225N11253 1975 72 EP MM HILARY 1975-08-13 15:00:00 TS 12.4391 -110.930 main 1002 1000 P________PP___ EP081975 12.4424 -110.930 TS 42 0 12.4424 -110.930 TC 42 12.4262 -110.927 2 41 8 291
1975225N11253 1975 72 EP MM HILARY 1975-08-13 18:00:00 TS 12.5932 -111.298 45 hurdat_epa main 1014 1013 O________OP___ hurdat_epa EP081975 12.6000 -111.300 TS 45 0 12.6000 -111.300 TC 45 12.5662 -111.289 2 42 8 295
1975225N11253 1975 72 EP MM HILARY 1975-08-13 21:00:00 TS 12.7595 -111.634 main 1020 1020 P________PP___ EP081975 12.7623 -111.635 TS 45 0 12.7623 -111.635 TC 45 12.7482 -111.631 2 43 8 301
1975225N11253 1975 72 EP MM HILARY 1975-08-14 00:00:00 TS 13.0000 -112.000 45 hurdat_epa main 1035 1034 O________OO___ hurdat_epa EP081975 13.0000 -112.000 TS 45 0 13.0000 -112.000 TC 45 13.0000 -112.000 2 45 10 306
1975225N11253 1975 72 EP MM HILARY 1975-08-14 03:00:00 TS 13.3607 -112.475 main 1041 1041 P________PP___ EP081975 13.3625 -112.477 TS 45 0 13.3625 -112.477 TC 45 13.3532 -112.464 2 45 13 309
1975225N11253 1975 72 EP MM HILARY 1975-08-14 06:00:00 TS 13.7950 -112.992 45 hurdat_epa main 1052 1037 O________OP___ hurdat_epa EP081975 13.8000 -113.000 TS 45 0 13.8000 -113.000 TC 45 13.7751 -112.962 2 45 13 312
1975225N11253 1975 72 EP MM HILARY 1975-08-14 09:00:00 TS 14.2468 -113.496 main 1040 1004 P________PP___ EP081975 14.2499 -113.500 TS 45 0 14.2499 -113.500 TC 45 14.2344 -113.480 2 45 13 313
1975225N11253 1975 72 EP MM HILARY 1975-08-14 12:00:00 TS 14.7000 -114.000 45 hurdat_epa main 1009 987 O________OO___ hurdat_epa EP081975 14.7000 -114.000 TS 45 0 14.7000 -114.000 TC 45 14.7000 -114.000 2 45 13 311
1975225N11253 1975 72 EP MM HILARY 1975-08-14 15:00:00 TS 15.1032 -114.498 main 992 974 P________PP___ EP081975 15.0999 -114.500 TS 45 0 15.0999 -114.500 TC 45 15.1164 -114.489 2 46 13 310
1975225N11253 1975 72 EP MM HILARY 1975-08-14 18:00:00 TS 15.5068 -114.996 45 hurdat_epa main 979 966 O________OP___ hurdat_epa EP081975 15.5000 -115.000 TS 45 0 15.5000 -115.000 TC 45 15.5342 -114.979 2 47 13 311
1975225N11253 1975 72 EP MM HILARY 1975-08-14 21:00:00 TS 15.9459 -115.490 main 972 958 P________PP___ EP081975 15.9423 -115.493 TS 47 0 15.9423 -115.493 TC 47 15.9600 -115.480 2 48 13 313
1975225N11253 1975 72 EP MM HILARY 1975-08-15 00:00:00 TS 16.4000 -116.000 50 hurdat_epa main 960 955 O________OO___ hurdat_epa EP081975 16.4000 -116.000 TS 50 0 16.4000 -116.000 TC 50 16.4000 -116.000 2 50 14 312
1975225N11253 1975 72 EP MM HILARY 1975-08-15 03:00:00 TS 16.8476 -116.541 main 962 961 P________PP___ EP081975 16.8424 -116.535 TS 50 0 16.8424 -116.535 TC 50 16.8687 -116.562 2 48 14 311
1975225N11253 1975 72 EP MM HILARY 1975-08-15 06:00:00 TS 17.3100 -117.109 50 hurdat_epa main 970 961 O________OP___ hurdat_epa EP081975 17.3000 -117.100 TS 50 0 17.3000 -117.100 TC 50 17.3500 -117.143 2 47 15 311
1975225N11253 1975 72 EP MM HILARY 1975-08-15 09:00:00 TS 17.8002 -117.706 main 965 955 P________PP___ EP081975 17.7925 -117.700 TS 47 0 17.7925 -117.700 TC 47 17.8312 -117.727 2 46 15 311
1975225N11253 1975 72 EP MM HILARY 1975-08-15 12:00:00 TS 18.3000 -118.300 45 hurdat_epa main 960 955 O________OO___ hurdat_epa EP081975 18.3000 -118.300 TS 45 0 18.3000 -118.300 TC 45 18.3000 -118.300 2 45 15 313
1975225N11253 1975 72 EP MM HILARY 1975-08-15 15:00:00 TS 18.8171 -118.866 main 963 954 P________PP___ EP081975 18.8223 -118.865 TS 45 0 18.8223 -118.865 TC 45 18.7961 -118.871 2 45 14 314
1975225N11253 1975 72 EP MM HILARY 1975-08-15 18:00:00 TS 19.2940 -119.405 45 hurdat_epa main 963 963 O________OP___ hurdat_epa EP081975 19.3000 -119.400 TS 45 0 19.3000 -119.400 TC 45 19.2699 -119.424 2 45 14 311
1975225N11253 1975 72 EP MM HILARY 1975-08-15 21:00:00 TS 19.7047 -119.938 main 975 975 P________PP___ EP081975 19.7100 -119.938 TS 42 0 19.7100 -119.938 TC 42 19.6838 -119.940 2 45 12 307
1975225N11253 1975 72 EP MM HILARY 1975-08-16 00:00:00 TS 20.0000 -120.400 40 hurdat_epa main 998 998 O________OO___ hurdat_epa EP081975 20.0000 -120.400 TS 40 0 20.0000 -120.400 TC 40 20.0000 -120.400 2 45 9 301
1975225N11253 1975 72 EP MM HILARY 1975-08-16 03:00:00 TS 20.1507 -120.738 main 1011 1011 P________PP___ EP081975 20.1447 -120.723 TS 37 0 20.1447 -120.723 TC 37 20.1749 -120.796 2 41 6 290
1975225N11253 1975 72 EP MM HILARY 1975-08-16 06:00:00 TS 20.2108 -121.027 35 hurdat_epa main 1030 1030 O________OP___ hurdat_epa EP081975 20.2000 -121.000 TS 35 0 20.2000 -121.000 TC 35 20.2541 -121.134 2 37 6 281
1975225N11253 1975 72 EP MM HILARY 1975-08-16 09:00:00 TS 20.2623 -121.372 main 1049 1049 P________PP___ EP081975 20.2576 -121.358 TS 32 -1 20.2576 -121.358 TC 32 20.2813 -121.430 2 33 6 278
1975225N11253 1975 72 EP MM HILARY 1975-08-16 12:00:00 TS 20.3000 -121.700 30 hurdat_epa main 1070 1070 O________OO___ hurdat_epa EP081975 20.3000 -121.700 TD 30 -1 20.3000 -121.700 TC 30 20.3000 -121.700 1 30 6 279
1975225N11253 1975 72 EP MM HILARY 1975-08-16 15:00:00 TS 20.3480 -121.964 main 1089 1081 P________PP___ EP081975 20.3424 -121.965 TD 30 -1 20.3424 -121.965 TC 30 20.3705 -121.960 1 30 5 283
1975225N11253 1975 72 EP MM HILARY 1975-08-16 18:00:00 TS 20.4084 -122.200 30 hurdat_epa main 1094 1092 O________OP___ hurdat_epa EP081975 20.4000 -122.200 TD 30 -1 20.4000 -122.200 TC 30 20.4419 -122.200 1 30 5 288
1975225N11253 1975 72 EP MM HILARY 1975-08-16 21:00:00 TS 20.4974 -122.442 main 1099 1099 P________PP___ EP081975 20.4924 -122.443 TD 30 -1 20.4924 -122.443 TC 30 20.5174 -122.441 1 30 5 292
1975225N11253 1975 72 EP MM HILARY 1975-08-17 00:00:00 TS 20.6000 -122.700 30 hurdat_epa main 1112 1112 O________OO___ hurdat_epa EP081975 20.6000 -122.700 TD 30 -1 20.6000 -122.700 TC 30 20.6000 -122.700 1 30 5 291
1975225N11253 1975 72 EP MM HILARY 1975-08-17 03:00:00 TS 20.6983 -122.986 main 1126 1126 P________PP___ EP081975 20.6999 -122.985 TD 30 -1 20.6999 -122.985 TC 30 20.6918 -122.992 1 28 6 289
1975225N11253 1975 72 EP MM HILARY 1975-08-17 06:00:00 TS 20.7982 -123.302 30 hurdat_epa main 1140 1140 O________OP___ hurdat_epa EP081975 20.8000 -123.300 TD 30 -1 20.8000 -123.300 TC 30 20.7908 -123.312 1 27 6 288
1975225N11253 1975 72 EP MM HILARY 1975-08-17 09:00:00 TS 20.8990 -123.644 main 1155 1155 P________PP___ EP081975 20.9002 -123.642 TD 30 -1 20.9002 -123.642 TC 30 20.8945 -123.651 1 26 7 287
1975225N11253 1975 72 EP MM HILARY 1975-08-17 12:00:00 TS 21.0000 -124.000 30 hurdat_epa main 1178 O________OO___ hurdat_epa EP081975 21.0000 -124.000 TD 30 -1 21.0000 -124.000 TC 30 21.0000 -124.000 1 25 7 287

IBTrACS Databaseについて

本データベースは、米国NOAAが公開する1842年以降の世界の熱帯低気圧のベストトラックデータアーカイブInternational Best Track Archive for Climate Stewardship (IBTrACS)を、ウェブで閲覧しやすい形式に変換したものです。

最終更新日:2021-12-01